createdAt,value
2019-02-27T00:00:20.998Z,11.30
2019-02-27T00:02:50.694Z,11.30
2019-02-27T00:05:20.407Z,11.20
2019-02-27T00:07:53.936Z,11.20
2019-02-27T00:10:21.499Z,11.20
2019-02-27T00:12:51.918Z,11.10
2019-02-27T00:15:22.698Z,11.10
2019-02-27T00:17:52.180Z,11.00
2019-02-27T00:20:21.845Z,11.00
2019-02-27T00:22:51.641Z,10.90
2019-02-27T00:25:21.550Z,10.90
2019-02-27T00:27:52.684Z,10.90
2019-02-27T00:30:23.816Z,10.80
2019-02-27T00:32:53.502Z,10.80
2019-02-27T00:35:23.156Z,10.80
2019-02-27T00:37:54.625Z,10.80
2019-02-27T00:40:24.284Z,10.70
2019-02-27T00:42:55.084Z,10.70
2019-02-27T00:45:26.394Z,10.70
2019-02-27T00:47:56.184Z,10.60
2019-02-27T00:50:30.097Z,10.60
2019-02-27T00:53:00.225Z,10.60
2019-02-27T00:55:29.998Z,10.50
2019-02-27T00:58:00.604Z,10.50
2019-02-27T01:00:30.295Z,10.50
2019-02-27T01:02:59.971Z,10.40
2019-02-27T01:05:30.067Z,10.40
2019-02-27T01:07:59.769Z,10.40
2019-02-27T01:10:29.445Z,10.30
2019-02-27T01:12:59.131Z,10.30
2019-02-27T01:15:28.820Z,10.30
2019-02-27T01:17:58.483Z,10.20
2019-02-27T01:20:28.163Z,10.20
2019-02-27T01:22:57.858Z,10.10
2019-02-27T01:25:29.558Z,10.10
2019-02-27T01:28:01.611Z,10.00
2019-02-27T01:30:31.768Z,10.00
2019-02-27T01:33:04.879Z,10.00
2019-02-27T01:35:34.799Z,10.00
2019-02-27T01:38:05.297Z,10.00
2019-02-27T01:40:35.507Z,10.00
2019-02-27T01:43:06.272Z,9.90
2019-02-27T01:45:36.328Z,9.90
2019-02-27T01:48:08.911Z,9.90
2019-02-27T01:50:37.983Z,9.90
2019-02-27T01:53:11.960Z,9.90
2019-02-27T01:55:43.286Z,9.80
2019-02-27T01:58:12.959Z,9.80
2019-02-27T02:00:44.242Z,9.80
2019-02-27T02:03:14.358Z,9.70
2019-02-27T02:05:44.309Z,9.70
2019-02-27T02:08:14.659Z,9.70
2019-02-27T02:10:45.047Z,9.70
2019-02-27T02:13:19.068Z,9.60
2019-02-27T02:16:14.014Z,9.60
2019-02-27T02:19:21.386Z,9.60
2019-02-27T02:22:14.189Z,9.60
2019-02-27T02:25:00.336Z,9.50
2019-02-27T02:28:01.634Z,9.50
2019-02-27T02:30:47.613Z,9.40
2019-02-27T02:33:45.662Z,9.40
2019-02-27T02:36:40.554Z,9.40
2019-02-27T02:39:23.514Z,9.40
2019-02-27T02:42:00.033Z,9.30
2019-02-27T02:44:37.807Z,9.30
2019-02-27T02:47:21.523Z,9.30
2019-02-27T02:50:07.514Z,9.30
2019-02-27T02:53:00.825Z,9.20
2019-02-27T02:55:49.518Z,9.20
2019-02-27T02:58:29.033Z,9.20
2019-02-27T03:01:15.167Z,9.10
2019-02-27T03:03:53.367Z,9.10
2019-02-27T03:06:39.256Z,9.10
2019-02-27T03:09:31.824Z,9.10
2019-02-27T03:12:14.301Z,9.00
2019-02-27T03:14:54.550Z,9.00
2019-02-27T03:18:05.419Z,9.00
2019-02-27T03:20:51.822Z,8.90
2019-02-27T03:23:52.577Z,8.90
2019-02-27T03:26:33.822Z,8.80
2019-02-27T03:29:41.176Z,8.80
2019-02-27T03:32:26.922Z,8.70
2019-02-27T03:35:27.465Z,8.70
2019-02-27T03:38:07.648Z,8.70
2019-02-27T03:40:53.102Z,8.70
2019-02-27T03:43:50.346Z,8.60
2019-02-27T03:46:46.830Z,8.60
2019-02-27T03:49:40.666Z,8.60
2019-02-27T03:52:39.303Z,8.50
2019-02-27T03:55:32.843Z,8.50
2019-02-27T03:58:15.156Z,8.50
2019-02-27T04:01:05.823Z,8.40
2019-02-27T04:03:39.893Z,8.40
2019-02-27T04:06:37.995Z,8.40
2019-02-27T04:09:09.230Z,8.40
2019-02-27T04:11:42.613Z,8.40
2019-02-27T04:14:40.522Z,8.40
2019-02-27T04:17:06.913Z,8.30
2019-02-27T04:19:39.295Z,8.30
2019-02-27T04:22:07.810Z,8.30
2019-02-27T04:24:37.482Z,8.10
2019-02-27T04:27:07.147Z,8.30
2019-02-27T04:29:40.764Z,8.30
2019-02-27T04:32:09.569Z,8.30
2019-02-27T04:34:39.598Z,8.30
2019-02-27T04:37:09.275Z,8.30
2019-02-27T04:39:38.928Z,8.30
2019-02-27T04:42:08.584Z,8.30
2019-02-27T04:44:38.901Z,8.30
2019-02-27T04:47:09.421Z,8.30
2019-02-27T04:49:39.096Z,8.20
2019-02-27T04:52:08.796Z,8.20
2019-02-27T04:54:41.306Z,8.20
2019-02-27T04:57:09.762Z,8.20
2019-02-27T04:59:39.438Z,8.20
2019-02-27T05:02:09.102Z,8.20
2019-02-27T05:04:38.766Z,8.20
2019-02-27T05:07:08.440Z,8.20
2019-02-27T05:09:38.094Z,8.20
2019-02-27T05:12:08.011Z,8.20
2019-02-27T05:14:37.686Z,8.20
2019-02-27T05:17:07.343Z,8.20
2019-02-27T05:19:37.747Z,8.20
2019-02-27T05:22:07.679Z,8.10
2019-02-27T05:24:40.639Z,8.10
2019-02-27T05:27:08.732Z,8.10
2019-02-27T05:29:38.419Z,8.10
2019-02-27T05:32:08.080Z,8.10
2019-02-27T05:34:57.026Z,8.10
2019-02-27T05:37:28.785Z,8.10
2019-02-27T05:39:58.448Z,8.10
2019-02-27T05:42:28.119Z,8.00
2019-02-27T05:44:57.798Z,8.00
2019-02-27T05:47:27.474Z,8.00
2019-02-27T05:50:00.673Z,8.00
2019-02-27T05:52:29.809Z,8.00
2019-02-27T05:54:59.485Z,8.00
2019-02-27T05:57:29.165Z,7.90
2019-02-27T06:00:02.240Z,7.90
2019-02-27T06:02:33.633Z,7.90
2019-02-27T06:05:04.128Z,7.90
2019-02-27T06:07:33.792Z,7.90
2019-02-27T06:10:04.060Z,7.90
2019-02-27T06:12:33.900Z,7.90
2019-02-27T06:15:04.364Z,7.80
2019-02-27T06:17:43.187Z,7.80
2019-02-27T06:20:08.011Z,7.80
2019-02-27T06:22:38.479Z,7.80
2019-02-27T06:25:21.667Z,7.80
2019-02-27T06:27:46.549Z,7.80
2019-02-27T06:30:19.861Z,7.80
2019-02-27T06:32:49.595Z,7.80
2019-02-27T06:35:22.391Z,7.80
2019-02-27T06:37:52.266Z,7.80
2019-02-27T06:40:21.963Z,7.80
2019-02-27T06:42:53.860Z,7.80
2019-02-27T06:45:23.027Z,7.70
2019-02-27T06:47:52.714Z,7.70
2019-02-27T06:50:25.174Z,7.70
2019-02-27T06:52:53.917Z,7.70
2019-02-27T06:55:25.464Z,7.70
2019-02-27T06:57:55.206Z,7.70
2019-02-27T07:00:28.684Z,7.60
2019-02-27T07:02:59.838Z,7.60
2019-02-27T07:05:29.507Z,7.60
2019-02-27T07:07:59.179Z,7.60
2019-02-27T07:10:28.854Z,7.70
2019-02-27T07:12:58.517Z,7.70
2019-02-27T07:15:29.372Z,7.70
2019-02-27T07:17:59.065Z,7.70
2019-02-27T07:20:28.543Z,7.70
2019-02-27T07:22:58.318Z,7.70
2019-02-27T07:25:28.054Z,7.80
2019-02-27T07:27:57.718Z,7.80
2019-02-27T07:30:27.365Z,7.90
2019-02-27T07:32:57.041Z,8.00
2019-02-27T07:35:29.144Z,8.10
2019-02-27T07:37:58.148Z,8.10
2019-02-27T07:40:27.817Z,8.20
2019-02-27T07:42:57.480Z,8.20
2019-02-27T07:45:27.157Z,8.30
2019-02-27T07:47:57.179Z,8.40
2019-02-27T07:50:27.087Z,8.50
2019-02-27T07:52:58.091Z,8.50
2019-02-27T07:55:28.514Z,8.60
2019-02-27T07:57:59.244Z,8.60
2019-02-27T08:00:29.273Z,8.60
2019-02-27T08:02:58.917Z,8.70
2019-02-27T08:05:31.699Z,8.70
2019-02-27T08:08:01.522Z,8.80
2019-02-27T08:10:31.164Z,8.80
2019-02-27T08:13:03.822Z,8.80
2019-02-27T08:15:34.963Z,8.80
2019-02-27T08:18:04.712Z,8.90
2019-02-27T08:20:34.556Z,9.00
2019-02-27T08:23:04.251Z,9.00
2019-02-27T08:25:33.918Z,9.10
2019-02-27T08:28:03.601Z,9.20
2019-02-27T08:30:33.264Z,9.30
2019-02-27T08:33:08.218Z,9.40
2019-02-27T08:35:35.965Z,9.50
2019-02-27T08:38:07.350Z,9.60
2019-02-27T08:40:36.985Z,9.70
2019-02-27T08:43:06.767Z,9.80
2019-02-27T08:45:37.671Z,9.90
2019-02-27T08:48:07.350Z,10.00
2019-02-27T08:50:37.021Z,10.10
2019-02-27T08:53:07.016Z,10.30
2019-02-27T08:55:39.130Z,10.50
2019-02-27T08:58:08.064Z,10.60
2019-02-27T09:00:38.575Z,10.70
2019-02-27T09:03:08.939Z,10.80
2019-02-27T09:05:39.307Z,10.90
2019-02-27T09:08:10.863Z,11.00
2019-02-27T09:10:41.414Z,11.00
2019-02-27T09:13:11.067Z,11.10
2019-02-27T09:15:41.686Z,11.20
2019-02-27T09:18:14.672Z,11.30
2019-02-27T09:20:44.241Z,11.40
2019-02-27T09:23:13.919Z,11.50
2019-02-27T09:25:44.555Z,11.60
2019-02-27T09:28:14.214Z,11.60
2019-02-27T09:30:46.177Z,11.70
2019-02-27T09:33:17.063Z,11.80
2019-02-27T09:35:47.295Z,11.90
2019-02-27T09:38:17.097Z,12.00
2019-02-27T09:40:46.748Z,12.10
2019-02-27T09:43:16.403Z,12.20
2019-02-27T09:45:48.131Z,12.20
2019-02-27T09:48:20.134Z,12.30
2019-02-27T09:50:49.805Z,12.30
2019-02-27T09:53:19.567Z,12.40
2019-02-27T09:55:53.301Z,12.50
2019-02-27T09:58:22.747Z,12.60
2019-02-27T10:01:00.713Z,12.70
2019-02-27T10:03:28.466Z,12.70
2019-02-27T10:05:58.119Z,12.80
2019-02-27T10:08:27.836Z,12.90
2019-02-27T10:10:57.509Z,13.00
2019-02-27T10:13:27.376Z,13.10
2019-02-27T10:16:00.269Z,13.10
2019-02-27T10:18:28.451Z,13.20
2019-02-27T10:20:58.124Z,13.30
2019-02-27T10:23:30.405Z,13.40
2019-02-27T10:25:59.237Z,13.50
2019-02-27T10:28:32.170Z,13.60
2019-02-27T10:31:01.979Z,13.60
2019-02-27T10:33:33.935Z,13.70
2019-02-27T10:36:05.156Z,13.80
2019-02-27T10:38:40.293Z,13.90
2019-02-27T10:41:06.241Z,14.00
2019-02-27T10:43:35.907Z,14.20
2019-02-27T10:46:05.602Z,14.20
2019-02-27T10:48:36.820Z,14.30
2019-02-27T10:51:09.524Z,14.40
2019-02-27T10:53:38.045Z,14.50
2019-02-27T10:56:09.185Z,14.70
2019-02-27T10:58:39.252Z,14.70
2019-02-27T11:01:10.962Z,14.90
2019-02-27T11:03:42.528Z,14.90
2019-02-27T11:06:12.277Z,15.00
2019-02-27T11:08:41.987Z,15.10
2019-02-27T11:11:13.132Z,15.20
2019-02-27T11:13:43.103Z,15.30
2019-02-27T11:16:15.458Z,15.40
2019-02-27T11:18:44.738Z,15.50
2019-02-27T11:21:14.535Z,15.60
2019-02-27T11:23:44.239Z,15.60
2019-02-27T11:26:16.686Z,15.70
2019-02-27T11:28:47.767Z,15.80
2019-02-27T11:31:17.757Z,15.80
2019-02-27T11:33:50.159Z,15.90
2019-02-27T11:36:21.304Z,16.00
2019-02-27T11:38:50.991Z,16.00
2019-02-27T11:41:20.650Z,16.10
2019-02-27T11:43:50.318Z,16.20
2019-02-27T11:46:20.016Z,16.30
2019-02-27T11:48:51.144Z,16.30
2019-02-27T11:51:20.885Z,16.40
2019-02-27T11:53:50.795Z,16.40
2019-02-27T11:56:20.911Z,16.50
2019-02-27T11:58:50.602Z,16.60
2019-02-27T12:01:22.024Z,16.60
2019-02-27T12:03:52.593Z,16.70
2019-02-27T12:06:22.261Z,16.80
2019-02-27T12:08:52.821Z,16.90
2019-02-27T12:11:23.380Z,16.90
2019-02-27T12:13:54.796Z,17.00
2019-02-27T12:16:24.453Z,17.10
2019-02-27T12:18:54.817Z,17.20
2019-02-27T12:21:25.432Z,17.30
2019-02-27T12:23:55.966Z,17.30
2019-02-27T12:26:25.637Z,17.40
2019-02-27T12:28:55.313Z,17.50
2019-02-27T12:31:25.016Z,17.60
2019-02-27T12:34:03.277Z,17.70
2019-02-27T12:36:32.088Z,17.70
2019-02-27T12:39:01.765Z,17.80
2019-02-27T12:41:32.487Z,17.90
2019-02-27T12:44:02.939Z,17.90
2019-02-27T12:46:34.173Z,18.00
2019-02-27T12:49:04.041Z,18.10
2019-02-27T12:51:35.246Z,18.10
2019-02-27T12:54:05.181Z,18.20
2019-02-27T12:56:34.881Z,18.30
2019-02-27T12:59:06.028Z,18.30
2019-02-27T13:01:37.118Z,18.40
2019-02-27T13:04:06.815Z,18.50
2019-02-27T13:06:40.415Z,18.60
2019-02-27T13:09:10.169Z,18.60
2019-02-27T13:11:41.946Z,18.70
2019-02-27T13:14:11.275Z,18.70
2019-02-27T13:16:40.948Z,18.80
2019-02-27T13:19:12.203Z,18.80
2019-02-27T13:21:41.883Z,18.90
2019-02-27T13:24:15.094Z,19.00
2019-02-27T13:26:42.991Z,19.00
2019-02-27T13:29:12.656Z,19.10
2019-02-27T13:31:42.350Z,19.10
2019-02-27T13:34:13.896Z,19.20
2019-02-27T13:36:43.459Z,19.20
2019-02-27T13:39:25.372Z,19.30
2019-02-27T13:41:54.360Z,19.30
2019-02-27T13:44:24.056Z,19.40
2019-02-27T13:46:56.994Z,19.40
2019-02-27T13:49:26.598Z,19.50
2019-02-27T13:51:57.767Z,19.50
2019-02-27T13:54:28.910Z,19.60
2019-02-27T13:56:58.585Z,19.60
2019-02-27T13:59:28.270Z,19.60
2019-02-27T14:02:00.702Z,19.70
2019-02-27T14:04:29.329Z,19.70
2019-02-27T14:06:59.339Z,19.70
2019-02-27T14:09:29.014Z,19.80
2019-02-27T14:11:59.393Z,19.80
2019-02-27T14:14:29.434Z,19.90
2019-02-27T14:16:59.288Z,19.90
2019-02-27T14:19:30.743Z,20.00
2019-02-27T14:22:00.440Z,20.00
2019-02-27T14:24:30.098Z,20.10
2019-02-27T14:26:59.781Z,20.10
2019-02-27T14:29:32.418Z,20.10
2019-02-27T14:32:02.083Z,20.10
2019-02-27T14:34:31.759Z,20.20
2019-02-27T14:37:01.492Z,20.20
2019-02-27T14:39:31.158Z,20.30
2019-02-27T14:42:00.830Z,20.30
2019-02-27T14:44:31.514Z,20.40
2019-02-27T14:47:01.985Z,20.40
2019-02-27T14:49:31.729Z,20.50
2019-02-27T14:52:01.425Z,20.50
2019-02-27T14:54:31.106Z,20.50
2019-02-27T14:57:02.459Z,20.50
2019-02-27T14:59:34.171Z,20.60
2019-02-27T15:02:04.652Z,20.60
2019-02-27T15:04:34.336Z,20.60
2019-02-27T15:07:04.019Z,20.70
2019-02-27T15:09:36.116Z,20.70
2019-02-27T15:12:24.366Z,20.80
2019-02-27T15:14:54.031Z,21.30
2019-02-27T15:17:23.704Z,22.80
2019-02-27T15:19:53.397Z,24.40
2019-02-27T15:22:23.061Z,25.90
2019-02-27T15:24:52.948Z,27.20
2019-02-27T15:27:25.024Z,28.30
2019-02-27T15:29:54.096Z,29.20
2019-02-27T15:32:27.073Z,29.90
2019-02-27T15:34:55.300Z,30.50
2019-02-27T15:37:24.962Z,31.00
2019-02-27T15:39:54.980Z,31.40
2019-02-27T15:42:25.602Z,31.90
2019-02-27T15:44:55.274Z,32.40
2019-02-27T15:47:30.015Z,32.90
2019-02-27T15:49:56.368Z,33.30
2019-02-27T15:52:26.038Z,33.70
2019-02-27T15:54:59.271Z,34.10
2019-02-27T15:57:28.573Z,34.30
2019-02-27T15:59:58.248Z,34.50
2019-02-27T16:02:29.685Z,34.70
2019-02-27T16:04:59.384Z,34.80
2019-02-27T16:07:29.058Z,35.00
2019-02-27T16:10:00.156Z,35.20
2019-02-27T16:12:31.411Z,34.50
2019-02-27T16:15:01.097Z,34.20
2019-02-27T16:17:32.320Z,34.20
2019-02-27T16:20:02.030Z,34.30
2019-02-27T16:22:31.700Z,34.50
2019-02-27T16:25:01.367Z,34.60
2019-02-27T16:27:32.204Z,34.70
2019-02-27T16:30:03.576Z,34.80
2019-02-27T16:32:33.763Z,34.80
2019-02-27T16:35:07.855Z,34.80
2019-02-27T16:37:37.537Z,34.70
2019-02-27T16:40:18.061Z,34.70
2019-02-27T16:42:48.469Z,34.60
2019-02-27T16:45:37.623Z,34.50
2019-02-27T16:48:07.347Z,34.30
2019-02-27T16:50:39.472Z,34.10
2019-02-27T16:53:09.430Z,33.80
2019-02-27T16:55:39.630Z,33.50
2019-02-27T16:58:10.259Z,33.20
2019-02-27T17:00:40.243Z,32.90
2019-02-27T17:03:13.089Z,32.60
2019-02-27T17:05:43.079Z,32.20
2019-02-27T17:08:15.082Z,31.60
2019-02-27T17:10:44.760Z,31.10
2019-02-27T17:13:16.460Z,30.60
2019-02-27T17:15:46.163Z,29.80
2019-02-27T17:18:16.238Z,28.80
2019-02-27T17:20:47.274Z,27.80
2019-02-27T17:23:17.250Z,26.90
2019-02-27T17:25:47.058Z,26.00
2019-02-27T17:28:18.365Z,25.30
2019-02-27T17:30:48.125Z,24.60
2019-02-27T17:33:19.272Z,24.00
2019-02-27T17:35:48.928Z,23.50
2019-02-27T17:38:18.635Z,23.00
2019-02-27T17:40:48.385Z,22.60
2019-02-27T17:43:18.060Z,22.20
2019-02-27T17:45:47.764Z,21.80
2019-02-27T17:48:17.443Z,21.50
2019-02-27T17:50:47.106Z,21.20
2019-02-27T17:53:16.799Z,20.90
2019-02-27T17:55:46.589Z,20.60
2019-02-27T17:58:17.336Z,20.30
2019-02-27T18:00:51.072Z,20.00
2019-02-27T18:03:22.100Z,19.70
2019-02-27T18:05:51.803Z,19.50
2019-02-27T18:08:21.539Z,19.30
2019-02-27T18:10:51.210Z,19.10
2019-02-27T18:13:20.893Z,18.90
2019-02-27T18:15:53.241Z,18.70
2019-02-27T18:18:21.993Z,18.60
2019-02-27T18:20:51.747Z,18.40
2019-02-27T18:23:21.949Z,18.20
2019-02-27T18:25:52.933Z,18.10
2019-02-27T18:28:23.243Z,17.90
2019-02-27T18:30:53.758Z,17.70
2019-02-27T18:33:24.963Z,17.60
2019-02-27T18:35:56.120Z,17.50
2019-02-27T18:38:27.821Z,17.30
2019-02-27T18:40:58.125Z,17.20
2019-02-27T18:43:30.910Z,17.10
2019-02-27T18:46:00.736Z,16.90
2019-02-27T18:48:30.409Z,16.80
2019-02-27T18:51:01.091Z,16.70
2019-02-27T18:53:32.225Z,16.60
2019-02-27T18:56:02.765Z,16.50
2019-02-27T18:58:32.672Z,16.40
2019-02-27T19:01:02.747Z,16.30
2019-02-27T19:03:34.757Z,16.20
2019-02-27T19:06:04.420Z,16.10
2019-02-27T19:08:35.188Z,16.00
2019-02-27T19:11:04.976Z,16.00
2019-02-27T19:13:34.675Z,15.90
2019-02-27T19:16:04.394Z,15.80
2019-02-27T19:18:34.089Z,15.70
2019-02-27T19:21:03.849Z,15.70
2019-02-27T19:23:33.564Z,15.60
2019-02-27T19:26:06.285Z,15.50
2019-02-27T19:28:42.752Z,15.40
2019-02-27T19:31:16.770Z,15.30
2019-02-27T19:33:45.577Z,15.30
2019-02-27T19:36:19.383Z,15.20
2019-02-27T19:38:51.102Z,15.10
2019-02-27T19:41:20.963Z,15.10
2019-02-27T19:43:55.005Z,15.00
2019-02-27T19:46:22.281Z,14.90
2019-02-27T19:48:53.274Z,14.90
2019-02-27T19:51:23.266Z,14.80
2019-02-27T19:53:55.317Z,14.70
2019-02-27T19:56:25.960Z,14.70
2019-02-27T19:58:58.316Z,14.60
2019-02-27T20:01:29.013Z,14.50
2019-02-27T20:03:58.671Z,14.50
2019-02-27T20:06:28.388Z,14.40
2019-02-27T20:08:58.081Z,14.40
2019-02-27T20:11:28.132Z,14.30
2019-02-27T20:14:02.020Z,14.30
2019-02-27T20:16:30.692Z,14.20
2019-02-27T20:19:00.364Z,14.20
2019-02-27T20:21:30.481Z,14.10
2019-02-27T20:24:01.425Z,14.10
2019-02-27T20:26:31.538Z,14.00
2019-02-27T20:29:04.138Z,14.00
2019-02-27T20:31:32.713Z,13.90
2019-02-27T20:34:02.473Z,13.90
2019-02-27T20:36:34.725Z,13.80
2019-02-27T20:39:05.273Z,13.80
2019-02-27T20:41:39.717Z,13.70
2019-02-27T20:44:06.639Z,13.70
2019-02-27T20:46:36.321Z,13.60
2019-02-27T20:49:06.397Z,13.60
2019-02-27T20:51:39.984Z,13.50
2019-02-27T20:54:10.972Z,13.50
2019-02-27T20:56:40.667Z,13.50
2019-02-27T20:59:11.991Z,13.40
2019-02-27T21:01:47.220Z,13.40
2019-02-27T21:04:16.082Z,13.30
2019-02-27T21:06:47.878Z,13.30
2019-02-27T21:09:17.202Z,13.20
2019-02-27T21:11:46.874Z,13.20
2019-02-27T21:14:16.561Z,13.20
2019-02-27T21:16:47.109Z,13.10
2019-02-27T21:19:16.766Z,13.10
2019-02-27T21:21:46.525Z,13.00
2019-02-27T21:24:16.445Z,13.00
2019-02-27T21:26:46.247Z,12.90
2019-02-27T21:29:19.535Z,12.90
2019-02-27T21:31:50.681Z,12.90
2019-02-27T21:34:20.328Z,12.80
2019-02-27T21:36:51.812Z,12.80
2019-02-27T21:39:22.576Z,12.70
2019-02-27T21:41:54.433Z,12.70
2019-02-27T21:44:25.710Z,12.60
2019-02-27T21:46:55.638Z,12.60
2019-02-27T21:49:25.322Z,12.60
2019-02-27T21:51:54.997Z,12.50
2019-02-27T21:54:25.011Z,12.50
2019-02-27T21:56:55.209Z,12.50
2019-02-27T21:59:24.931Z,12.40
2019-02-27T22:01:56.283Z,12.40
2019-02-27T22:04:27.634Z,12.30
2019-02-27T22:06:58.464Z,12.30
2019-02-27T22:09:28.913Z,12.30
2019-02-27T22:12:01.140Z,12.20
2019-02-27T22:14:30.063Z,12.20
2019-02-27T22:17:01.589Z,12.20
2019-02-27T22:19:32.647Z,12.10
2019-02-27T22:22:05.320Z,12.10
2019-02-27T22:24:35.726Z,12.00
2019-02-27T22:27:05.523Z,12.00
2019-02-27T22:29:35.240Z,12.00
2019-02-27T22:32:04.922Z,12.00
2019-02-27T22:34:34.570Z,11.90
2019-02-27T22:37:04.342Z,11.90
2019-02-27T22:39:34.088Z,11.90
2019-02-27T22:42:03.804Z,11.80
2019-02-27T22:44:33.506Z,11.80
2019-02-27T22:47:03.176Z,11.80
2019-02-27T22:49:35.148Z,11.80
2019-02-27T22:52:04.905Z,11.70
2019-02-27T22:54:36.848Z,11.70
2019-02-27T22:57:07.923Z,11.60
2019-02-27T22:59:38.839Z,11.60
2019-02-27T23:02:08.526Z,11.60
2019-02-27T23:04:38.983Z,11.50
2019-02-27T23:07:08.967Z,11.50
2019-02-27T23:09:38.827Z,11.50
2019-02-27T23:12:09.301Z,11.40
2019-02-27T23:14:40.486Z,11.40
2019-02-27T23:17:10.161Z,11.30
2019-02-27T23:19:39.926Z,11.30
2019-02-27T23:22:10.631Z,11.20
2019-02-27T23:24:43.709Z,11.20
2019-02-27T23:27:21.241Z,11.10
2019-02-27T23:29:51.096Z,11.10
2019-02-27T23:32:20.767Z,11.10
2019-02-27T23:34:51.980Z,11.00
2019-02-27T23:37:29.252Z,10.90
2019-02-27T23:39:56.272Z,10.90
2019-02-27T23:42:28.659Z,10.80
2019-02-27T23:44:58.369Z,10.80
2019-02-27T23:47:28.691Z,10.80
2019-02-27T23:49:59.057Z,10.80
2019-02-27T23:52:28.740Z,10.70
2019-02-27T23:55:00.179Z,10.70
2019-02-27T23:57:30.034Z,10.70
2019-02-27T23:59:59.795Z,10.70
